クライストチャーチ の空港の天気 - METARとTAF

クライストチャーチ国際空港 ( NZCH / CHC ) - ニュージーランド クライストチャーチ
飛行場実況気象(Metar)
観測時間03/26 20:00 NZDT (03/26 07:00 UTC)
風向・風速東 5m/s
視程10km以上
天気現象弱い雨
全天を覆う雲 雲底高度 150m
気温15℃
湿度100%
気圧1010hPa
METARNZCH 260700Z AUTO 08010KT 9999 -RA OVC005/// 15/15 Q1010 REDZ NOSIG
過去の天気等 Google飛行場航空写真 Wunderground天気予報

過去48時間のMETAR

飛行場予報(TAF)
発表時間: 3/26 18:03 NZDT (3/26 05:03 UTC)
予報対象時間: 26日19時 NZDT ~ 27日19時 NZDT
風向・風速北東 8m/s
視程10km以上
天気現象弱い雨
全天の8割程度の雲 雲底高度 210m
26日21時 NZDT ~ 26日23時 NZDT に徐々に
風向・風速北東 3m/s
少しの雲 雲底高度 240m
全天の4割程度の雲 雲底高度 430m
27日7時 NZDT から
風向・風速西南西 6m/s
視程10km以上
天気現象弱い雨霧雨
全天の8割程度の雲 雲底高度 370m
27日9時 NZDT ~ 27日19時 NZDT に一時的に
視程3,000m
天気現象雨霧雨
全天の8割程度の雲 雲底高度 120m
TAF NZCH 260503Z 2606/2706 05015KT 9999 -RA BKN007
BECMG 2608/2610 05005KT FEW008 SCT014
FM261800 24012KT 9999 -RADZ BKN012
TEMPO 2620/2706 3000 RADZ BKN004